Time;durP1;ratioP1;P1;durP2;ratioP2;P2;SDS_P1;SDS_P2;PMS_P1;PMS_P2;Temp;Humidity;BMP_temperature;BMP_pressure;BME280_temperature;BME280_humidity;BME280_pressure;Samples;Min_cycle;Max_cycle;Signal;HPM_P1;HPM_P2
2022/05/11 00:01:21;;;;;;;0.40;0.40;;;;;;;28.63;31.53;96735.03;5083650;28;20468;-30
2022/05/11 00:03:46;;;;;;;0.32;0.30;;;;;;;28.63;31.64;96733.25;5084324;28;20034;-30
2022/05/11 00:06:11;;;;;;;0.40;0.40;;;;;;;28.62;31.65;96731.56;5082852;28;21766;-31
2022/05/11 00:08:37;;;;;;;0.50;0.40;;;;;;;28.62;31.45;96728.91;5082606;28;20028;-29
2022/05/11 00:11:04;;;;;;;0.20;0.20;;;;;;;28.63;31.56;96729.75;5080826;28;20032;-31
2022/05/11 00:13:30;;;;;;;0.55;0.40;;;;;;;28.62;31.63;96725.44;5082649;28;20089;-30
2022/05/11 00:15:55;;;;;;;0.30;0.30;;;;;;;28.62;31.70;96721.00;5084408;28;20095;-32
2022/05/11 00:18:20;;;;;;;0.50;0.50;;;;;;;28.62;31.54;96721.00;5085961;28;20693;-30
2022/05/11 00:20:46;;;;;;;0.50;0.50;;;;;;;28.62;31.59;96714.88;5083177;28;20028;-33
2022/05/11 00:23:11;;;;;;;0.50;0.50;;;;;;;28.61;31.79;96724.59;5083799;28;20032;-32
2022/05/11 00:25:37;;;;;;;0.47;0.47;;;;;;;28.62;31.58;96720.16;5082623;28;20070;-29
2022/05/11 00:28:02;;;;;;;0.40;0.40;;;;;;;28.61;31.59;96715.84;5081353;28;20036;-30
2022/05/11 00:30:28;;;;;;;0.40;0.40;;;;;;;28.61;31.67;96716.69;5082623;28;20031;-30
2022/05/11 00:32:54;;;;;;;0.40;0.40;;;;;;;28.60;31.63;96714.97;5081409;28;20122;-30
2022/05/11 00:35:20;;;;;;;0.38;0.38;;;;;;;28.61;31.66;96713.19;5083322;28;20048;-32
2022/05/11 00:37:45;;;;;;;0.50;0.50;;;;;;;28.60;31.59;96720.25;5082635;28;20840;-30
2022/05/11 00:40:11;;;;;;;0.50;0.50;;;;;;;28.60;31.43;96714.16;5083487;28;20028;-33
2022/05/11 00:42:37;;;;;;;0.38;0.38;;;;;;;28.60;31.47;96714.16;5076594;28;20270;-30
2022/05/11 00:45:03;;;;;;;0.40;0.40;;;;;;;28.60;31.49;96712.34;5082859;28;20056;-30
2022/05/11 00:47:40;;;;;;;0.38;0.38;;;;;;;28.60;31.70;96714.97;5083274;28;20640;-31
2022/05/11 00:50:29;;;;;;;0.40;0.30;;;;;;;28.59;31.57;96702.75;5082501;28;20047;-33
2022/05/11 00:52:54;;;;;;;0.60;0.60;;;;;;;28.60;31.47;96695.69;5080066;28;20035;-33
2022/05/11 00:55:23;;;;;;;0.40;0.40;;;;;;;28.58;31.52;96701.06;5081420;28;20085;-35
2022/05/11 00:57:54;;;;;;;1.50;0.40;;;;;;;28.59;31.48;96694.84;5083105;28;20032;-30
2022/05/11 01:00:20;;;;;;;0.40;0.40;;;;;;;28.59;31.49;96702.75;5083445;28;20037;-30
2022/05/11 01:02:48;;;;;;;0.50;0.50;;;;;;;28.58;31.55;96698.44;5080081;28;20042;-30
2022/05/11 01:05:13;;;;;;;0.40;0.40;;;;;;;28.59;31.54;96694.84;5077863;28;20106;-30
2022/05/11 01:07:38;;;;;;;0.60;0.60;;;;;;;28.58;31.58;96693.16;5081347;28;20062;-30
2022/05/11 01:10:05;;;;;;;0.40;0.40;;;;;;;28.58;31.50;96698.44;5078876;28;20041;-32
2022/05/11 01:12:32;;;;;;;0.30;0.30;;;;;;;28.59;31.50;96697.47;5080304;28;20963;-31
2022/05/11 01:15:00;;;;;;;0.40;0.40;;;;;;;28.59;31.59;96702.75;5064851;28;20032;-30
2022/05/11 01:17:26;;;;;;;0.40;0.40;;;;;;;28.59;31.38;96700.13;5081771;28;20183;-30
2022/05/11 01:19:53;;;;;;;0.40;0.38;;;;;;;28.59;31.44;96694.84;5082975;28;20028;-30
2022/05/11 01:22:40;;;;;;;0.30;0.30;;;;;;;28.58;31.72;96693.16;5082279;28;20996;-33
2022/05/11 01:25:06;;;;;;;0.40;0.40;;;;;;;28.58;31.51;96692.31;5065473;28;20055;-29
2022/05/11 01:27:36;;;;;;;0.50;0.50;;;;;;;28.57;31.42;96691.47;5083055;28;20024;-29
2022/05/11 01:30:22;;;;;;;0.32;0.32;;;;;;;28.56;31.37;96697.66;5078098;28;20115;-30
2022/05/11 01:32:52;;;;;;;1.13;0.50;;;;;;;28.56;31.41;96700.31;5081907;28;20521;-29
2022/05/11 01:35:32;;;;;;;1.42;0.47;;;;;;;28.55;31.42;96693.34;5081758;28;20097;-30
2022/05/11 01:38:03;;;;;;;0.73;0.38;;;;;;;28.55;31.57;96695.97;5081893;28;20046;-30
2022/05/11 01:40:29;;;;;;;0.30;0.30;;;;;;;28.55;31.51;96698.63;5082681;28;20027;-33
2022/05/11 01:42:54;;;;;;;0.77;0.55;;;;;;;28.54;31.42;96697.78;5083047;28;20043;-31
2022/05/11 01:45:19;;;;;;;0.50;0.50;;;;;;;28.55;31.49;96698.63;5082513;28;20051;-32
2022/05/11 01:47:45;;;;;;;0.57;0.57;;;;;;;28.54;31.68;96692.50;5081077;28;20035;-31
2022/05/11 01:50:10;;;;;;;0.40;0.40;;;;;;;28.55;31.60;96698.63;5082815;28;20036;-31
2022/05/11 01:52:36;;;;;;;0.40;0.40;;;;;;;28.54;31.51;96691.66;5080682;28;20036;-31
2022/05/11 01:55:01;;;;;;;0.35;0.35;;;;;;;28.54;31.62;96691.66;5081201;28;20032;-31
2022/05/11 01:57:26;;;;;;;0.30;0.30;;;;;;;28.54;31.49;96681.94;5080022;28;20031;-33
2022/05/11 01:59:52;;;;;;;0.40;0.40;;;;;;;28.55;31.40;96682.81;5081686;28;20671;-32
2022/05/11 02:02:17;;;;;;;0.45;0.45;;;;;;;28.54;31.60;96686.41;5082689;28;20036;-31
2022/05/11 02:10:10;;;;;;;0.43;0.43;;;;;;;28.54;31.46;96686.41;5083303;28;20177;-31
2022/05/11 02:12:36;;;;;;;0.60;0.60;;;;;;;28.54;31.42;96686.41;5080214;28;20026;-30
2022/05/11 02:15:02;;;;;;;0.40;0.40;;;;;;;28.53;31.66;96690.00;5087818;28;20703;-33
2022/05/11 02:17:28;;;;;;;0.68;0.40;;;;;;;28.53;31.48;96687.34;5083932;28;20093;-32
2022/05/11 02:19:53;;;;;;;0.40;0.40;;;;;;;28.54;31.42;96686.41;5083881;28;20039;-30
2022/05/11 02:22:18;;;;;;;0.40;0.40;;;;;;;28.53;31.28;96682.06;5083568;28;20023;-31
2022/05/11 02:24:44;;;;;;;0.40;0.40;;;;;;;28.54;31.58;96692.50;5085980;28;20065;-29
2022/05/11 02:27:09;;;;;;;0.60;0.60;;;;;;;28.53;31.44;96687.34;5083209;28;20765;-29
2022/05/11 02:29:35;;;;;;;0.55;0.50;;;;;;;28.53;31.41;96684.72;5082287;28;20032;-29
2022/05/11 02:32:02;;;;;;;0.45;0.45;;;;;;;28.52;31.33;96681.22;5085840;28;20084;-31
2022/05/11 02:37:12;;;;;;;0.40;0.40;;;;;;;28.53;31.34;96682.06;5085876;28;20043;-28
2022/05/11 02:39:37;;;;;;;0.40;0.40;;;;;;;28.52;31.37;96673.31;5081991;28;20027;-31
2022/05/11 02:42:03;;;;;;;1.17;0.47;;;;;;;28.53;31.43;96679.44;5081509;28;20442;-29
2022/05/11 02:44:28;;;;;;;0.30;0.30;;;;;;;28.52;31.31;96681.22;5084594;28;20466;-30
2022/05/11 02:46:54;;;;;;;0.60;0.60;;;;;;;28.52;31.50;96675.09;5084009;28;20725;-30
2022/05/11 02:49:19;;;;;;;1.10;0.45;;;;;;;28.52;31.41;96683.00;5085128;28;20039;-29
2022/05/11 02:51:45;;;;;;;1.65;0.40;;;;;;;28.52;31.44;96685.63;5084720;28;20027;-31
2022/05/11 02:54:10;;;;;;;0.43;0.43;;;;;;;28.52;31.51;96680.38;5084627;28;20970;-29
2022/05/11 02:56:36;;;;;;;0.57;0.50;;;;;;;28.51;31.30;96676.91;5084422;28;20916;-30
2022/05/11 02:59:01;;;;;;;0.40;0.40;;;;;;;28.52;31.33;96680.38;5083407;28;20055;-29
2022/05/11 03:01:27;;;;;;;0.30;0.30;;;;;;;28.52;31.32;96683.00;5086064;28;20043;-29
2022/05/11 03:03:52;;;;;;;0.40;0.40;;;;;;;28.52;31.39;96683.00;5084384;28;20032;-30
2022/05/11 03:06:18;;;;;;;0.30;0.30;;;;;;;28.51;31.25;96678.69;5082936;28;20035;-30
2022/05/11 03:08:43;;;;;;;0.50;0.50;;;;;;;28.51;31.54;96676.03;5084744;28;20028;-32
2022/05/11 03:11:09;;;;;;;0.40;0.40;;;;;;;28.52;31.48;96677.72;5081471;28;20577;-31
2022/05/11 03:13:34;;;;;;;0.38;0.38;;;;;;;28.52;31.35;96677.72;5085625;28;20405;-28
2022/05/11 03:15:59;;;;;;;0.40;0.40;;;;;;;28.50;31.40;96677.84;5083856;28;20035;-31
2022/05/11 03:18:25;;;;;;;0.35;0.35;;;;;;;28.52;31.51;96683.00;5083487;28;20028;-29
2022/05/11 03:20:50;;;;;;;0.40;0.40;;;;;;;28.51;31.20;96681.31;5083787;28;20039;-30
2022/05/11 03:23:16;;;;;;;0.40;0.40;;;;;;;28.50;31.33;96677.84;5085577;28;20026;-29
2022/05/11 03:25:41;;;;;;;0.40;0.40;;;;;;;28.51;31.42;96682.19;5082320;28;20039;-30
2022/05/11 03:28:07;;;;;;;0.40;0.40;;;;;;;28.49;31.41;96673.50;5084298;28;20054;-30
2022/05/11 03:30:32;;;;;;;0.40;0.40;;;;;;;28.50;31.43;96677.00;5083589;28;20059;-29
2022/05/11 03:35:42;;;;;;;0.40;0.40;;;;;;;28.50;31.35;96669.09;5085613;28;20035;-40
2022/05/11 03:38:08;;;;;;;0.30;0.30;;;;;;;28.49;31.43;96665.59;5083188;28;20034;-37
2022/05/11 03:40:37;;;;;;;0.60;0.60;;;;;;;28.49;31.30;96677.94;5082749;28;20019;-30
2022/05/11 03:43:03;;;;;;;0.50;0.50;;;;;;;28.49;31.37;96667.41;5084271;28;20473;-29
2022/05/11 03:45:29;;;;;;;1.00;0.38;;;;;;;28.48;31.22;96666.56;5085171;28;20067;-30
2022/05/11 03:47:54;;;;;;;0.40;0.40;;;;;;;28.48;31.52;96658.66;5085086;28;20544;-29
2022/05/11 03:50:22;;;;;;;0.30;0.30;;;;;;;28.48;31.37;96665.69;5079694;28;20043;-29
2022/05/11 03:52:48;;;;;;;0.40;0.40;;;;;;;28.48;31.35;96666.56;5081598;28;20131;-30
2022/05/11 03:55:13;;;;;;;0.30;0.30;;;;;;;28.49;31.34;96662.13;5081124;28;20024;-29
2022/05/11 03:57:39;;;;;;;0.40;0.40;;;;;;;28.47;31.45;96664.88;5083785;28;20137;-30
2022/05/11 04:00:13;;;;;;;0.30;0.30;;;;;;;28.47;31.28;96664.00;5083927;28;20024;-33
2022/05/11 04:02:39;;;;;;;0.40;0.40;;;;;;;28.47;31.44;96658.75;5083018;28;20205;-30
2022/05/11 04:05:05;;;;;;;0.30;0.30;;;;;;;28.47;31.30;96664.88;5084556;28;20031;-30
2022/05/11 04:07:31;;;;;;;0.40;0.40;;;;;;;28.46;31.33;96667.59;5084105;28;20173;-30
2022/05/11 04:09:56;;;;;;;0.43;0.43;;;;;;;28.46;31.56;96662.34;5081382;28;20036;-28
2022/05/11 04:12:24;;;;;;;0.40;0.40;;;;;;;28.46;31.20;96667.59;5084415;28;20023;-29
2022/05/11 04:14:49;;;;;;;0.40;0.40;;;;;;;28.46;31.20;96662.34;5084313;28;20883;-31
2022/05/11 04:17:15;;;;;;;0.47;0.47;;;;;;;28.45;31.37;96660.66;5082266;28;20038;-33
2022/05/11 04:19:40;;;;;;;0.55;0.43;;;;;;;28.45;31.38;96663.28;5085299;28;20042;-29
2022/05/11 04:22:05;;;;;;;0.50;0.50;;;;;;;28.45;31.27;96668.56;5083204;28;20040;-31
2022/05/11 04:24:31;;;;;;;0.40;0.40;;;;;;;28.45;31.33;96665.91;5080888;28;20565;-29
2022/05/11 04:26:56;;;;;;;0.40;0.40;;;;;;;28.45;31.21;96665.91;5080015;28;20039;-28
2022/05/11 04:29:22;;;;;;;0.50;0.50;;;;;;;28.44;31.37;96665.06;5081907;28;20020;-31
2022/05/11 04:31:54;;;;;;;0.40;0.30;;;;;;;28.45;31.34;96671.19;5083767;28;20844;-30
2022/05/11 04:34:20;;;;;;;0.45;0.32;;;;;;;28.43;31.53;96674.78;5079754;28;20123;-31
2022/05/11 04:36:45;;;;;;;1.42;0.65;;;;;;;28.44;31.56;96670.34;5083823;28;20031;-29
2022/05/11 04:39:10;;;;;;;0.50;0.50;;;;;;;28.43;31.45;96669.50;5085390;28;20035;-30
2022/05/11 04:41:36;;;;;;;0.30;0.30;;;;;;;28.44;31.36;96675.59;5080467;28;20093;-31
2022/05/11 04:44:01;;;;;;;0.55;0.50;;;;;;;28.42;31.20;96673.06;5081633;28;20028;-28
2022/05/11 04:46:27;;;;;;;0.40;0.40;;;;;;;28.43;31.14;96673.94;5081291;28;20666;-28
2022/05/11 04:49:16;;;;;;;0.30;0.30;;;;;;;28.43;31.45;96676.56;5082631;28;20035;-31
2022/05/11 04:51:38;;;;;;;0.38;0.38;;;;;;;28.43;31.40;96674.78;5079011;28;20032;-30
2022/05/11 04:54:04;;;;;;;0.30;0.30;;;;;;;28.43;31.47;96677.41;5080330;28;20711;-29
2022/05/11 04:56:31;;;;;;;0.40;0.40;;;;;;;28.43;31.36;96677.41;5081906;28;20046;-29
2022/05/11 04:58:58;;;;;;;0.50;0.50;;;;;;;28.43;31.26;96672.16;5081612;28;20027;-30
2022/05/11 05:01:24;;;;;;;0.45;0.45;;;;;;;28.42;31.25;96673.06;5082206;28;20036;-31
2022/05/11 05:03:50;;;;;;;0.63;0.63;;;;;;;28.43;31.35;96669.50;5082044;28;20039;-29
2022/05/11 05:06:15;;;;;;;0.50;0.50;;;;;;;28.43;31.16;96669.50;5083657;28;20516;-29
2022/05/11 05:08:40;;;;;;;0.60;0.60;;;;;;;28.42;31.27;96665.16;5082365;28;20249;-29
2022/05/11 05:11:06;;;;;;;0.40;0.40;;;;;;;28.43;31.34;96673.94;5078616;28;20028;-30
2022/05/11 05:13:31;;;;;;;0.40;0.40;;;;;;;28.42;31.48;96673.06;5080858;28;20035;-33
2022/05/11 05:15:57;;;;;;;0.50;0.50;;;;;;;28.43;31.35;96674.78;5081578;28;20031;-28
2022/05/11 05:18:22;;;;;;;0.30;0.30;;;;;;;28.43;31.36;96680.06;5081781;28;20035;-29
2022/05/11 05:20:48;;;;;;;0.30;0.30;;;;;;;28.43;31.45;96682.69;5081126;28;20291;-29
2022/05/11 05:23:13;;;;;;;0.40;0.40;;;;;;;28.44;31.51;96686.16;5091324;28;20039;-29
2022/05/11 05:25:39;;;;;;;0.40;0.40;;;;;;;28.43;31.51;96685.31;5079711;28;20034;-29
2022/05/11 05:33:46;;;;;;;0.40;0.40;;;;;;;28.42;31.45;96683.63;5049682;28;20051;-30
2022/05/11 05:36:12;;;;;;;0.40;0.40;;;;;;;28.45;31.23;96692.28;5081093;28;20760;-27
2022/05/11 05:38:38;;;;;;;0.98;0.50;;;;;;;28.45;31.53;96697.56;5080712;28;20020;-29
2022/05/11 05:41:07;;;;;;;0.40;0.40;;;;;;;28.45;31.49;96694.91;5081153;28;20035;-30
2022/05/11 05:43:32;;;;;;;0.25;0.25;;;;;;;28.43;31.22;96690.59;5081327;28;20050;-29
2022/05/11 05:45:58;;;;;;;0.32;0.32;;;;;;;28.45;31.30;96692.28;5081186;28;20813;-29
2022/05/11 05:48:23;;;;;;;0.45;0.38;;;;;;;28.45;31.23;96692.28;5081253;28;20358;-28
2022/05/11 05:50:49;;;;;;;0.40;0.40;;;;;;;28.46;31.38;96693.97;5080398;27;20047;-28
2022/05/11 05:53:19;;;;;;;0.40;0.40;;;;;;;28.45;31.42;96692.28;5087262;28;20031;-32
2022/05/11 05:55:48;;;;;;;0.40;0.40;;;;;;;28.46;31.36;96693.97;5084756;28;20608;-30
2022/05/11 05:58:14;;;;;;;0.40;0.40;;;;;;;28.45;31.53;96692.28;5086901;28;20047;-29
2022/05/11 06:00:39;;;;;;;0.40;0.40;;;;;;;28.46;31.64;96684.28;5085064;28;20030;-30
2022/05/11 06:03:05;;;;;;;0.57;0.43;;;;;;;28.46;31.44;96686.06;5084246;28;20032;-28
2022/05/11 06:05:30;;;;;;;0.50;0.50;;;;;;;28.47;31.38;96693.00;5082527;28;20024;-30
2022/05/11 06:07:56;;;;;;;0.32;0.32;;;;;;;28.48;31.53;96684.16;5086385;28;20039;-30
2022/05/11 06:10:23;;;;;;;0.50;0.50;;;;;;;28.48;31.25;96686.78;5082091;28;20027;-29
2022/05/11 06:12:49;;;;;;;1.95;0.50;;;;;;;28.49;31.42;96693.78;5085792;28;20798;-28
2022/05/11 06:15:14;;;;;;;0.45;0.45;;;;;;;28.49;31.69;96684.06;5084433;28;20039;-29
2022/05/11 06:17:40;;;;;;;0.35;0.35;;;;;;;28.50;31.26;96690.19;5084823;28;20031;-30
2022/05/11 06:20:08;;;;;;;0.47;0.40;;;;;;;28.50;31.26;96692.81;5085916;28;20040;-30
2022/05/11 06:22:33;;;;;;;0.22;0.22;;;;;;;28.51;31.40;96691.84;5084787;28;20121;-30
2022/05/11 06:25:00;;;;;;;0.73;0.40;;;;;;;28.50;31.56;96684.91;5080526;28;20032;-28
2022/05/11 06:27:25;;;;;;;0.30;0.30;;;;;;;28.51;31.56;96681.31;5082791;28;20028;-33
2022/05/11 06:29:52;;;;;;;0.55;0.55;;;;;;;28.50;31.38;96691.03;5083652;28;20089;-29
2022/05/11 06:32:19;;;;;;;0.40;0.40;;;;;;;28.52;31.50;96688.28;5084890;28;20032;-29
2022/05/11 06:34:45;;;;;;;0.40;0.40;;;;;;;28.52;31.56;96683.00;5084314;28;20028;-29
2022/05/11 06:37:10;;;;;;;0.40;0.40;;;;;;;28.50;31.39;96685.75;5084516;28;20065;-28
2022/05/11 06:39:36;;;;;;;0.40;0.40;;;;;;;28.52;31.65;96683.00;5082128;28;20032;-28
2022/05/11 06:42:02;;;;;;;0.50;0.50;;;;;;;28.51;31.44;96682.19;5083226;28;20032;-30
2022/05/11 06:44:27;;;;;;;0.30;0.30;;;;;;;28.52;31.32;96672.47;5083442;28;20031;-29
2022/05/11 06:46:53;;;;;;;0.47;0.47;;;;;;;28.51;31.35;96676.91;5084980;28;20032;-32
2022/05/11 06:49:19;;;;;;;0.32;0.32;;;;;;;28.52;31.38;96678.59;5084119;28;20039;-29
2022/05/11 06:51:44;;;;;;;0.40;0.40;;;;;;;28.53;31.61;96674.16;5081901;28;20066;-32
2022/05/11 06:59:38;;;;;;;0.50;0.50;;;;;;;28.53;31.48;96668.91;5085881;28;20039;-30
2022/05/11 07:02:04;;;;;;;0.40;0.40;;;;;;;28.53;31.41;96676.81;5085136;28;20032;-29
2022/05/11 07:04:33;;;;;;;0.40;0.40;;;;;;;28.52;31.60;96673.31;5086597;28;20039;-30
2022/05/11 07:06:59;;;;;;;0.40;0.40;;;;;;;28.52;31.40;96670.69;5083934;28;20634;-29
2022/05/11 07:09:25;;;;;;;1.98;0.50;;;;;;;28.52;31.53;96667.19;5081631;28;20509;-31
2022/05/11 07:14:35;;;;;;;0.40;0.40;;;;;;;28.52;31.44;96668.03;5085168;28;20039;-34
2022/05/11 07:17:01;;;;;;;0.50;0.50;;;;;;;28.52;31.52;96661.91;5083163;28;20027;-28
2022/05/11 07:19:26;;;;;;;0.50;0.50;;;;;;;28.52;31.57;96661.91;5084238;28;20055;-29
2022/05/11 07:21:52;;;;;;;0.50;0.50;;;;;;;28.53;31.58;96668.91;5084006;28;20016;-29
2022/05/11 07:24:17;;;;;;;0.57;0.40;;;;;;;28.53;31.44;96674.16;5086900;28;20023;-30
2022/05/11 07:26:43;;;;;;;0.40;0.40;;;;;;;28.54;31.79;96670.56;5084704;28;20074;-33
2022/05/11 07:29:08;;;;;;;0.70;0.50;;;;;;;28.54;31.53;96667.94;5084587;28;20038;-33
2022/05/11 07:31:33;;;;;;;0.57;0.50;;;;;;;28.53;31.36;96663.63;5086927;28;20828;-31
2022/05/11 07:33:59;;;;;;;0.52;0.38;;;;;;;28.53;31.36;96669.72;5082123;28;20027;-32
2022/05/11 07:36:24;;;;;;;0.63;0.55;;;;;;;28.54;31.68;96671.41;5083577;28;20930;-30
2022/05/11 07:38:50;;;;;;;0.50;0.50;;;;;;;28.54;31.52;96665.31;5084046;28;20028;-31
2022/05/11 07:41:16;;;;;;;0.55;0.55;;;;;;;28.55;31.57;96661.72;5082206;28;20055;-31
2022/05/11 07:43:41;;;;;;;0.55;0.45;;;;;;;28.55;31.58;96664.34;5083030;28;20110;-31
2022/05/11 07:46:07;;;;;;;0.50;0.50;;;;;;;28.55;31.52;96664.34;5081633;28;20033;-29
2022/05/11 07:48:32;;;;;;;0.70;0.70;;;;;;;28.55;31.44;96667.00;5081783;28;20040;-28
2022/05/11 07:50:58;;;;;;;0.50;0.50;;;;;;;28.55;31.54;96667.84;5080551;28;20033;-29
2022/05/11 07:53:23;;;;;;;0.73;0.45;;;;;;;28.55;31.61;96667.00;5082096;28;20588;-32
2022/05/11 07:59:52;;;;;;;0.43;0.43;;;;;;;28.55;31.56;96667.84;5083335;28;20024;-32
2022/05/11 08:01:18;;;;;;;0.70;0.70;;;;;;;28.56;31.70;96650.22;5082957;28;20055;-29
2022/05/11 08:03:43;;;;;;;0.47;0.40;;;;;;;28.54;31.61;96649.50;5082150;28;20637;-29
2022/05/11 08:06:09;;;;;;;0.50;0.50;;;;;;;28.56;31.78;96652.84;5083146;28;20043;-31
2022/05/11 08:08:34;;;;;;;0.40;0.40;;;;;;;28.57;31.51;96657.22;5081779;28;20054;-31
2022/05/11 08:11:00;;;;;;;0.50;0.50;;;;;;;28.57;31.56;96654.56;5080407;28;20036;-31
2022/05/11 08:13:25;;;;;;;0.55;0.52;;;;;;;28.57;31.48;96659.84;5083876;28;20020;-30
2022/05/11 08:15:51;;;;;;;0.45;0.45;;;;;;;28.58;31.50;96656.25;5084125;28;20032;-31
2022/05/11 08:18:18;;;;;;;0.30;0.30;;;;;;;28.57;31.38;96654.56;5083168;28;20055;-31
2022/05/11 08:20:46;;;;;;;0.60;0.60;;;;;;;28.58;31.60;96643.06;5084962;28;20028;-32
2022/05/11 08:23:11;;;;;;;0.40;0.40;;;;;;;28.59;31.67;96642.13;5084235;28;20952;-33
2022/05/11 08:25:38;;;;;;;0.40;0.40;;;;;;;28.58;31.78;96643.06;5084740;28;20114;-31
2022/05/11 08:28:08;;;;;;;0.60;0.47;;;;;;;28.60;31.77;96642.97;5079569;28;20683;-32
2022/05/11 08:33:26;;;;;;;0.60;0.60;;;;;;;28.61;31.77;96636.75;5085529;28;20454;-30
2022/05/11 08:36:04;;;;;;;0.50;0.50;;;;;;;28.61;31.48;96640.22;5082362;28;20028;-33
2022/05/11 08:38:34;;;;;;;0.40;0.40;;;;;;;28.60;31.68;96638.53;5083299;28;20034;-30
2022/05/11 08:41:23;;;;;;;0.50;0.50;;;;;;;28.60;31.65;96633.25;5085126;28;20035;-33
2022/05/11 08:43:49;;;;;;;0.60;0.60;;;;;;;28.61;31.56;96626.19;5081384;28;20054;-32
2022/05/11 08:46:35;;;;;;;0.43;0.43;;;;;;;28.61;31.59;96626.19;5081625;28;20088;-31
2022/05/11 08:49:02;;;;;;;0.60;0.60;;;;;;;28.61;31.74;96619.13;5080193;28;20490;-30
2022/05/11 08:51:40;;;;;;;1.40;0.45;;;;;;;28.60;31.71;96620.06;5081763;28;20079;-31
2022/05/11 08:54:21;;;;;;;0.50;0.50;;;;;;;28.61;31.70;96613.88;5083501;28;20055;-31
2022/05/11 08:56:47;;;;;;;0.50;0.50;;;;;;;28.62;31.58;96615.56;5083452;28;20074;-32
2022/05/11 08:59:20;;;;;;;0.50;0.50;;;;;;;28.61;31.58;96613.88;5082535;28;20035;-31
2022/05/11 09:01:49;;;;;;;0.68;0.68;;;;;;;28.61;31.44;96613.88;5080300;28;20035;-30
2022/05/11 09:04:17;;;;;;;0.32;0.32;;;;;;;28.62;31.68;96615.56;5091717;28;20464;-37
2022/05/11 09:06:44;;;;;;;0.50;0.50;;;;;;;28.62;31.74;96610.28;5066410;28;20092;-31
2022/05/11 09:09:09;;;;;;;0.50;0.50;;;;;;;28.63;31.67;96614.59;5080814;28;20027;-31
2022/05/11 09:11:41;;;;;;;0.93;0.60;;;;;;;28.63;31.81;96611.97;5082466;28;20051;-33
2022/05/11 09:14:07;;;;;;;;;;;;;;;28.63;31.77;96609.31;5085026;28;20044;-31
2022/05/11 09:16:43;;;;;;;0.40;0.40;;;;;;;28.64;31.79;96608.38;5083177;28;20017;-32
2022/05/11 09:19:11;;;;;;;0.52;0.50;;;;;;;28.64;31.61;96607.53;5081151;28;20678;-31
2022/05/11 09:21:37;;;;;;;0.50;0.50;;;;;;;28.63;31.88;96598.78;5079035;28;20032;-35
2022/05/11 09:24:02;;;;;;;0.50;0.50;;;;;;;28.64;31.77;96597.81;5088084;28;20030;-32
2022/05/11 09:26:32;;;;;;;0.40;0.40;;;;;;;28.64;31.77;96600.47;5087376;28;20061;-30
2022/05/11 09:29:19;;;;;;;0.40;0.40;;;;;;;28.64;31.61;96597.81;5086394;28;20060;-29
2022/05/11 09:31:45;;;;;;;1.48;0.50;;;;;;;28.65;31.74;96604.78;5087318;28;20143;-33
2022/05/11 09:34:14;;;;;;;0.68;0.50;;;;;;;28.66;31.62;96593.31;5084156;28;20147;-32
2022/05/11 09:36:56;;;;;;;0.40;0.40;;;;;;;28.66;31.66;96582.75;5083705;28;20028;-30
2022/05/11 09:39:21;;;;;;;0.40;0.38;;;;;;;28.66;31.86;96590.66;5084469;28;20059;-32
2022/05/11 09:41:51;;;;;;;0.30;0.30;;;;;;;28.66;31.79;96585.41;5082176;28;20490;-30
2022/05/11 09:44:20;;;;;;;0.50;0.50;;;;;;;28.67;31.91;96576.53;5086701;28;20119;-31
2022/05/11 09:46:46;;;;;;;0.40;0.40;;;;;;;28.67;31.66;96581.81;5086342;28;20043;-29
2022/05/11 09:49:17;;;;;;;0.50;0.50;;;;;;;28.68;31.59;96580.84;5084111;28;21289;-30
2022/05/11 09:51:45;;;;;;;;;;;;;;;28.69;31.62;96577.25;5082356;28;20028;-31
2022/05/11 09:54:47;;;;;;;0.40;0.40;;;;;;;28.68;31.86;96578.22;5085886;28;19924;-33
2022/05/11 09:57:12;;;;;;;0.47;0.40;;;;;;;28.69;31.82;96569.34;5085515;28;20043;-30
2022/05/11 09:59:43;;;;;;;0.32;0.32;;;;;;;28.70;31.71;96575.47;5085924;28;20023;-29
2022/05/11 10:02:41;;;;;;;0.50;0.50;;;;;;;28.69;31.65;96561.44;5085651;28;21013;-29
2022/05/11 10:05:20;;;;;;;0.75;0.32;;;;;;;28.71;31.70;96574.50;5070657;28;20065;-32
2022/05/11 10:07:47;;;;;;;0.50;0.50;;;;;;;28.72;31.93;96573.56;5093095;28;20028;-31
2022/05/11 10:10:22;;;;;;;0.40;0.40;;;;;;;28.71;31.84;96550.78;5084652;28;20039;-30
2022/05/11 10:12:48;;;;;;;0.40;0.40;;;;;;;28.73;31.85;96563.88;5097667;27;20136;-31
2022/05/11 10:24:04;;;;;;;0.60;0.50;;;;;;;28.75;31.80;96556.72;5093801;28;20514;-30
2022/05/11 10:26:49;;;;;;;0.40;0.40;;;;;;;28.74;31.73;96560.28;5083167;28;20072;-31
2022/05/11 10:29:17;;;;;;;0.40;0.40;;;;;;;28.75;31.88;96554.06;5076976;28;20168;-30
2022/05/11 10:32:05;;;;;;;0.50;0.47;;;;;;;28.75;31.70;96551.44;5085610;28;20055;-29
2022/05/11 10:34:42;;;;;;;0.55;0.40;;;;;;;28.75;31.78;96544.34;5084286;28;20142;-30
2022/05/11 10:37:26;;;;;;;0.70;0.52;;;;;;;28.76;31.96;96547.84;5087071;28;20039;-29
2022/05/11 10:39:56;;;;;;;0.50;0.50;;;;;;;28.76;31.85;96540.75;5084310;28;20035;-29
2022/05/11 10:42:34;;;;;;;0.40;0.40;;;;;;;28.77;31.86;96531.06;5086715;28;20024;-31
2022/05/11 10:45:18;;;;;;;0.55;0.50;;;;;;;28.77;31.78;96528.44;5085302;28;20028;-29
2022/05/11 10:48:03;;;;;;;0.43;0.40;;;;;;;28.78;31.68;96524.84;5083989;28;20032;-30
2022/05/11 10:50:58;;;;;;;0.30;0.30;;;;;;;28.78;31.81;96527.47;5081606;28;21071;-30
2022/05/11 10:53:41;;;;;;;0.32;0.32;;;;;;;28.78;31.89;96524.84;5082978;28;20143;-31
2022/05/11 10:56:33;;;;;;;0.40;0.40;;;;;;;28.78;31.73;96522.19;5081878;28;20027;-31
2022/05/11 10:59:02;;;;;;;0.25;0.25;;;;;;;28.79;31.86;96523.88;5084848;28;20172;-31
2022/05/11 11:01:58;;;;;;;0.40;0.40;;;;;;;28.80;31.96;96517.66;5084273;28;20115;-30
2022/05/11 11:04:41;;;;;;;0.73;0.52;;;;;;;28.80;31.78;96515.84;5054446;28;20127;-31
2022/05/11 11:07:23;;;;;;;0.38;0.38;;;;;;;28.81;31.78;96507.03;5085921;28;20118;-29
2022/05/11 11:10:17;;;;;;;0.35;0.35;;;;;;;28.82;31.77;96505.22;5080438;28;20439;-29
2022/05/11 11:12:47;;;;;;;0.40;0.40;;;;;;;28.81;31.82;96500.91;5087143;28;20026;-29
2022/05/11 11:15:14;;;;;;;0.60;0.50;;;;;;;28.82;31.99;96505.22;5085885;28;20035;-30
2022/05/11 11:17:40;;;;;;;0.50;0.50;;;;;;;28.83;31.91;96498.97;5066118;28;20023;-31
2022/05/11 11:20:06;;;;;;;0.43;0.40;;;;;;;28.84;31.96;96495.41;5067947;28;20148;-31
2022/05/11 11:23:12;;;;;;;0.30;0.30;;;;;;;28.84;31.81;96498.06;5081903;28;20031;-28
2022/05/11 11:25:56;;;;;;;0.35;0.32;;;;;;;28.85;31.72;96488.31;5082358;28;20027;-29
2022/05/11 11:28:28;;;;;;;0.60;0.50;;;;;;;28.86;31.82;96495.28;5084719;28;20371;-30
2022/05/11 11:30:59;;;;;;;0.40;0.40;;;;;;;28.87;31.85;96484.63;5082871;28;20054;-31
2022/05/11 11:33:32;;;;;;;0.50;0.50;;;;;;;28.87;31.79;96484.63;5081245;28;20032;-35
2022/05/11 11:36:05;;;;;;;0.40;0.40;;;;;;;28.87;31.92;96478.53;5083114;28;20036;-30
2022/05/11 11:38:31;;;;;;;0.40;0.40;;;;;;;28.88;32.01;96477.56;5084040;28;20028;-30
2022/05/11 11:41:18;;;;;;;0.60;0.60;;;;;;;28.89;31.85;96472.22;5082838;28;20028;-29
2022/05/11 11:43:49;;;;;;;0.43;0.43;;;;;;;28.89;31.92;96472.22;5081408;28;20612;-30
2022/05/11 11:46:45;;;;;;;0.60;0.60;;;;;;;28.88;31.81;96478.41;5081107;28;20784;-32
2022/05/11 11:49:16;;;;;;;0.40;0.40;;;;;;;28.90;31.96;96465.97;5067040;28;20058;-31
2022/05/11 11:51:50;;;;;;;0.57;0.45;;;;;;;28.90;31.87;96468.63;5080482;28;20032;-30
2022/05/11 11:54:48;;;;;;;0.40;0.30;;;;;;;28.88;31.99;96446.78;5083874;28;21032;-30
2022/05/11 11:57:22;;;;;;;0.47;0.47;;;;;;;28.90;31.75;96439.63;5070161;28;20096;-30
2022/05/11 11:59:49;;;;;;;0.50;0.50;;;;;;;28.91;31.90;96451.00;5083591;28;20066;-30
2022/05/11 12:02:30;;;;;;;0.80;0.50;;;;;;;28.91;31.92;96440.47;5081340;28;20048;-30
2022/05/11 12:04:58;;;;;;;0.77;0.45;;;;;;;28.92;31.99;96453.50;5081559;28;20116;-30
2022/05/11 12:16:09;;;;;;;0.50;0.50;;;;;;;28.92;31.81;96437.69;5087734;28;20058;-33
2022/05/11 12:18:39;;;;;;;0.60;0.50;;;;;;;28.90;31.97;96429.06;5083455;28;20035;-29
2022/05/11 12:21:22;;;;;;;0.68;0.40;;;;;;;28.91;31.80;96443.94;5081526;28;20139;-30
2022/05/11 12:23:48;;;;;;;0.50;0.40;;;;;;;28.90;32.00;96444.88;5083261;28;20125;-32
2022/05/11 12:26:21;;;;;;;0.90;0.50;;;;;;;28.91;31.80;96436.00;5076421;28;20135;-31
2022/05/11 12:28:46;;;;;;;0.40;0.35;;;;;;;28.92;32.01;96427.13;5082177;28;20035;-30
2022/05/11 12:31:30;;;;;;;0.30;0.30;;;;;;;28.92;32.09;96442.16;5082280;28;20031;-30